sensor_id;sensor_type;location;lat;lon;timestamp;P1;durP1;ratioP1;P2;durP2;ratioP2
32918;SDS011;19280;42.646;21.150;2023-06-24T00:01:27;23.38;;;13.48;;
32918;SDS011;19280;42.646;21.150;2023-06-24T00:03:54;33.13;;;13.90;;
32918;SDS011;19280;42.646;21.150;2023-06-24T00:06:20;29.67;;;14.65;;
32918;SDS011;19280;42.646;21.150;2023-06-24T00:08:50;30.55;;;14.30;;
32918;SDS011;19280;42.646;21.150;2023-06-24T00:11:16;25.92;;;13.15;;
32918;SDS011;19280;42.646;21.150;2023-06-24T00:13:42;23.65;;;13.13;;
32918;SDS011;19280;42.646;21.150;2023-06-24T00:16:09;26.42;;;12.57;;
32918;SDS011;19280;42.646;21.150;2023-06-24T00:18:35;23.77;;;13.30;;
32918;SDS011;19280;42.646;21.150;2023-06-24T00:21:02;21.05;;;13.23;;
32918;SDS011;19280;42.646;21.150;2023-06-24T00:23:28;27.50;;;13.30;;
32918;SDS011;19280;42.646;21.150;2023-06-24T00:25:55;24.67;;;12.60;;
32918;SDS011;19280;42.646;21.150;2023-06-24T00:28:22;30.45;;;14.07;;
32918;SDS011;19280;42.646;21.150;2023-06-24T00:30:48;23.58;;;13.32;;
32918;SDS011;19280;42.646;21.150;2023-06-24T00:33:14;23.40;;;12.52;;
32918;SDS011;19280;42.646;21.150;2023-06-24T00:35:41;26.38;;;13.02;;
32918;SDS011;19280;42.646;21.150;2023-06-24T00:38:10;25.02;;;13.20;;
32918;SDS011;19280;42.646;21.150;2023-06-24T00:40:37;22.75;;;12.65;;
32918;SDS011;19280;42.646;21.150;2023-06-24T00:43:03;22.60;;;13.65;;
32918;SDS011;19280;42.646;21.150;2023-06-24T00:45:30;26.67;;;13.77;;
32918;SDS011;19280;42.646;21.150;2023-06-24T00:47:57;36.10;;;15.55;;
32918;SDS011;19280;42.646;21.150;2023-06-24T00:50:23;25.10;;;14.35;;
32918;SDS011;19280;42.646;21.150;2023-06-24T00:52:49;25.85;;;14.90;;
32918;SDS011;19280;42.646;21.150;2023-06-24T00:55:16;32.80;;;14.95;;
32918;SDS011;19280;42.646;21.150;2023-06-24T00:57:43;28.50;;;14.00;;
32918;SDS011;19280;42.646;21.150;2023-06-24T01:00:10;25.77;;;15.00;;
32918;SDS011;19280;42.646;21.150;2023-06-24T01:02:41;31.52;;;15.25;;
32918;SDS011;19280;42.646;21.150;2023-06-24T01:05:07;25.35;;;14.65;;
32918;SDS011;19280;42.646;21.150;2023-06-24T01:07:34;26.40;;;15.65;;
32918;SDS011;19280;42.646;21.150;2023-06-24T01:10:01;27.02;;;15.20;;
32918;SDS011;19280;42.646;21.150;2023-06-24T01:12:30;33.83;;;15.32;;
32918;SDS011;19280;42.646;21.150;2023-06-24T01:14:56;26.52;;;15.40;;
32918;SDS011;19280;42.646;21.150;2023-06-24T01:17:44;28.67;;;15.15;;
32918;SDS011;19280;42.646;21.150;2023-06-24T01:20:23;27.13;;;14.55;;
32918;SDS011;19280;42.646;21.150;2023-06-24T01:34:00;27.20;;;14.65;;
32918;SDS011;19280;42.646;21.150;2023-06-24T01:36:28;24.00;;;13.07;;
32918;SDS011;19280;42.646;21.150;2023-06-24T01:38:57;27.45;;;13.90;;
32918;SDS011;19280;42.646;21.150;2023-06-24T01:41:24;22.63;;;13.20;;
32918;SDS011;19280;42.646;21.150;2023-06-24T01:43:52;23.10;;;13.25;;
32918;SDS011;19280;42.646;21.150;2023-06-24T01:46:21;30.98;;;16.33;;
32918;SDS011;19280;42.646;21.150;2023-06-24T01:48:47;23.63;;;13.27;;
32918;SDS011;19280;42.646;21.150;2023-06-24T01:51:19;26.05;;;13.90;;
32918;SDS011;19280;42.646;21.150;2023-06-24T01:53:50;23.42;;;13.90;;
32918;SDS011;19280;42.646;21.150;2023-06-24T01:56:17;29.08;;;13.43;;
32918;SDS011;19280;42.646;21.150;2023-06-24T01:58:44;24.10;;;13.15;;
32918;SDS011;19280;42.646;21.150;2023-06-24T02:01:11;24.77;;;13.45;;
32918;SDS011;19280;42.646;21.150;2023-06-24T02:03:38;27.70;;;13.80;;
32918;SDS011;19280;42.646;21.150;2023-06-24T02:06:05;23.85;;;12.32;;
32918;SDS011;19280;42.646;21.150;2023-06-24T02:08:33;26.35;;;13.43;;
32918;SDS011;19280;42.646;21.150;2023-06-24T02:10:59;23.70;;;13.18;;
32918;SDS011;19280;42.646;21.150;2023-06-24T02:13:26;22.70;;;13.73;;
32918;SDS011;19280;42.646;21.150;2023-06-24T02:15:52;27.98;;;14.23;;
32918;SDS011;19280;42.646;21.150;2023-06-24T02:18:18;22.17;;;13.40;;
32918;SDS011;19280;42.646;21.150;2023-06-24T02:20:45;30.90;;;13.95;;
32918;SDS011;19280;42.646;21.150;2023-06-24T02:23:12;30.83;;;13.20;;
32918;SDS011;19280;42.646;21.150;2023-06-24T02:25:38;20.60;;;13.13;;
32918;SDS011;19280;42.646;21.150;2023-06-24T02:28:05;19.88;;;13.23;;
32918;SDS011;19280;42.646;21.150;2023-06-24T02:30:32;24.10;;;12.70;;
32918;SDS011;19280;42.646;21.150;2023-06-24T02:33:00;36.10;;;18.98;;
32918;SDS011;19280;42.646;21.150;2023-06-24T02:35:26;33.38;;;15.48;;
32918;SDS011;19280;42.646;21.150;2023-06-24T02:37:52;24.25;;;15.18;;
32918;SDS011;19280;42.646;21.150;2023-06-24T02:40:18;24.63;;;13.60;;
32918;SDS011;19280;42.646;21.150;2023-06-24T02:42:45;27.95;;;14.30;;
32918;SDS011;19280;42.646;21.150;2023-06-24T02:45:11;35.05;;;15.98;;
32918;SDS011;19280;42.646;21.150;2023-06-24T02:47:38;30.65;;;15.73;;
32918;SDS011;19280;42.646;21.150;2023-06-24T02:50:04;36.25;;;17.55;;
32918;SDS011;19280;42.646;21.150;2023-06-24T02:52:31;43.30;;;17.50;;
32918;SDS011;19280;42.646;21.150;2023-06-24T02:54:57;51.58;;;20.38;;
32918;SDS011;19280;42.646;21.150;2023-06-24T02:57:24;43.13;;;19.13;;
32918;SDS011;19280;42.646;21.150;2023-06-24T02:59:51;42.63;;;18.80;;
32918;SDS011;19280;42.646;21.150;2023-06-24T03:02:17;35.97;;;18.38;;
32918;SDS011;19280;42.646;21.150;2023-06-24T03:04:43;46.20;;;18.63;;
32918;SDS011;19280;42.646;21.150;2023-06-24T03:07:10;32.17;;;18.35;;
32918;SDS011;19280;42.646;21.150;2023-06-24T03:09:36;28.20;;;17.38;;
32918;SDS011;19280;42.646;21.150;2023-06-24T03:12:03;32.33;;;16.98;;
32918;SDS011;19280;42.646;21.150;2023-06-24T03:14:29;36.00;;;16.45;;
32918;SDS011;19280;42.646;21.150;2023-06-24T03:16:55;31.88;;;15.50;;
32918;SDS011;19280;42.646;21.150;2023-06-24T03:19:22;28.00;;;13.50;;
32918;SDS011;19280;42.646;21.150;2023-06-24T03:21:48;30.42;;;14.27;;
32918;SDS011;19280;42.646;21.150;2023-06-24T03:24:15;25.33;;;13.55;;
32918;SDS011;19280;42.646;21.150;2023-06-24T03:26:41;31.52;;;15.55;;
32918;SDS011;19280;42.646;21.150;2023-06-24T03:29:07;31.10;;;14.48;;
32918;SDS011;19280;42.646;21.150;2023-06-24T03:31:33;28.20;;;15.05;;
32918;SDS011;19280;42.646;21.150;2023-06-24T03:33:59;24.73;;;13.98;;
32918;SDS011;19280;42.646;21.150;2023-06-24T03:36:25;23.58;;;13.73;;
32918;SDS011;19280;42.646;21.150;2023-06-24T03:38:51;26.65;;;14.30;;
32918;SDS011;19280;42.646;21.150;2023-06-24T03:41:18;26.27;;;12.63;;
32918;SDS011;19280;42.646;21.150;2023-06-24T03:43:44;27.42;;;13.23;;
32918;SDS011;19280;42.646;21.150;2023-06-24T03:46:11;30.33;;;12.93;;
32918;SDS011;19280;42.646;21.150;2023-06-24T03:48:37;26.65;;;13.20;;
32918;SDS011;19280;42.646;21.150;2023-06-24T03:51:03;32.28;;;14.68;;
32918;SDS011;19280;42.646;21.150;2023-06-24T03:53:29;26.23;;;14.95;;
32918;SDS011;19280;42.646;21.150;2023-06-24T03:55:55;33.55;;;14.90;;
32918;SDS011;19280;42.646;21.150;2023-06-24T03:58:21;32.90;;;13.35;;
32918;SDS011;19280;42.646;21.150;2023-06-24T04:00:48;30.70;;;14.35;;
32918;SDS011;19280;42.646;21.150;2023-06-24T04:03:15;28.58;;;13.48;;
32918;SDS011;19280;42.646;21.150;2023-06-24T04:05:43;27.13;;;12.95;;
32918;SDS011;19280;42.646;21.150;2023-06-24T04:08:09;28.08;;;12.15;;
32918;SDS011;19280;42.646;21.150;2023-06-24T04:10:35;32.20;;;11.50;;
32918;SDS011;19280;42.646;21.150;2023-06-24T04:13:01;27.23;;;9.63;;
32918;SDS011;19280;42.646;21.150;2023-06-24T04:15:28;34.67;;;11.68;;
32918;SDS011;19280;42.646;21.150;2023-06-24T04:17:54;30.52;;;10.88;;
32918;SDS011;19280;42.646;21.150;2023-06-24T04:20:20;29.88;;;11.05;;
32918;SDS011;19280;42.646;21.150;2023-06-24T04:22:46;35.38;;;11.43;;
32918;SDS011;19280;42.646;21.150;2023-06-24T04:25:12;40.25;;;10.95;;
32918;SDS011;19280;42.646;21.150;2023-06-24T04:27:38;27.58;;;9.52;;
32918;SDS011;19280;42.646;21.150;2023-06-24T04:30:04;30.80;;;9.73;;
32918;SDS011;19280;42.646;21.150;2023-06-24T04:32:30;27.75;;;9.73;;
32918;SDS011;19280;42.646;21.150;2023-06-24T04:34:57;27.25;;;9.75;;
32918;SDS011;19280;42.646;21.150;2023-06-24T04:37:25;26.75;;;9.43;;
32918;SDS011;19280;42.646;21.150;2023-06-24T04:39:51;31.83;;;9.55;;
32918;SDS011;19280;42.646;21.150;2023-06-24T04:42:17;32.05;;;8.90;;
32918;SDS011;19280;42.646;21.150;2023-06-24T04:44:43;35.20;;;9.95;;
32918;SDS011;19280;42.646;21.150;2023-06-24T04:47:09;31.02;;;9.02;;
32918;SDS011;19280;42.646;21.150;2023-06-24T04:49:35;28.77;;;9.05;;
32918;SDS011;19280;42.646;21.150;2023-06-24T04:52:01;29.58;;;9.63;;
32918;SDS011;19280;42.646;21.150;2023-06-24T04:54:28;29.42;;;8.32;;
32918;SDS011;19280;42.646;21.150;2023-06-24T04:56:54;23.83;;;8.80;;
32918;SDS011;19280;42.646;21.150;2023-06-24T04:59:21;26.00;;;9.25;;
32918;SDS011;19280;42.646;21.150;2023-06-24T05:01:47;33.22;;;8.95;;
32918;SDS011;19280;42.646;21.150;2023-06-24T05:04:13;34.58;;;10.05;;
32918;SDS011;19280;42.646;21.150;2023-06-24T05:06:39;26.15;;;10.38;;
32918;SDS011;19280;42.646;21.150;2023-06-24T05:09:05;35.42;;;9.60;;
32918;SDS011;19280;42.646;21.150;2023-06-24T05:11:31;27.27;;;9.45;;
32918;SDS011;19280;42.646;21.150;2023-06-24T05:13:57;41.80;;;9.82;;
32918;SDS011;19280;42.646;21.150;2023-06-24T05:16:23;36.17;;;9.43;;
32918;SDS011;19280;42.646;21.150;2023-06-24T05:18:49;30.63;;;9.27;;
32918;SDS011;19280;42.646;21.150;2023-06-24T05:21:15;26.00;;;8.07;;
32918;SDS011;19280;42.646;21.150;2023-06-24T05:23:42;31.85;;;9.13;;
32918;SDS011;19280;42.646;21.150;2023-06-24T05:26:08;29.90;;;9.32;;
32918;SDS011;19280;42.646;21.150;2023-06-24T05:28:34;30.38;;;9.65;;
32918;SDS011;19280;42.646;21.150;2023-06-24T05:31:00;28.17;;;7.57;;
32918;SDS011;19280;42.646;21.150;2023-06-24T05:33:26;28.40;;;9.52;;
32918;SDS011;19280;42.646;21.150;2023-06-24T05:35:52;26.98;;;8.48;;
32918;SDS011;19280;42.646;21.150;2023-06-24T05:38:18;29.73;;;9.00;;
32918;SDS011;19280;42.646;21.150;2023-06-24T05:40:44;36.03;;;9.23;;
32918;SDS011;19280;42.646;21.150;2023-06-24T05:43:10;27.38;;;8.90;;
32918;SDS011;19280;42.646;21.150;2023-06-24T05:45:36;29.20;;;8.85;;
32918;SDS011;19280;42.646;21.150;2023-06-24T05:48:03;28.05;;;8.65;;
32918;SDS011;19280;42.646;21.150;2023-06-24T05:50:29;28.13;;;8.43;;
32918;SDS011;19280;42.646;21.150;2023-06-24T05:52:58;27.75;;;8.57;;
32918;SDS011;19280;42.646;21.150;2023-06-24T05:55:24;31.15;;;9.35;;
32918;SDS011;19280;42.646;21.150;2023-06-24T05:57:50;25.42;;;8.70;;
32918;SDS011;19280;42.646;21.150;2023-06-24T06:00:17;29.27;;;8.52;;
32918;SDS011;19280;42.646;21.150;2023-06-24T06:02:43;28.60;;;8.25;;
32918;SDS011;19280;42.646;21.150;2023-06-24T06:05:09;33.60;;;9.13;;
32918;SDS011;19280;42.646;21.150;2023-06-24T06:07:38;37.22;;;8.98;;
32918;SDS011;19280;42.646;21.150;2023-06-24T06:10:05;28.15;;;9.55;;
32918;SDS011;19280;42.646;21.150;2023-06-24T06:12:31;28.42;;;9.27;;
32918;SDS011;19280;42.646;21.150;2023-06-24T06:14:57;29.17;;;9.85;;
32918;SDS011;19280;42.646;21.150;2023-06-24T06:17:23;29.58;;;9.27;;
32918;SDS011;19280;42.646;21.150;2023-06-24T06:19:50;22.67;;;8.30;;
32918;SDS011;19280;42.646;21.150;2023-06-24T06:22:16;22.25;;;8.57;;
32918;SDS011;19280;42.646;21.150;2023-06-24T06:24:43;26.40;;;9.27;;
32918;SDS011;19280;42.646;21.150;2023-06-24T06:27:09;25.98;;;10.02;;
32918;SDS011;19280;42.646;21.150;2023-06-24T06:29:36;32.42;;;9.80;;
32918;SDS011;19280;42.646;21.150;2023-06-24T06:32:02;24.95;;;9.75;;
32918;SDS011;19280;42.646;21.150;2023-06-24T06:34:29;26.08;;;10.00;;
32918;SDS011;19280;42.646;21.150;2023-06-24T06:36:55;20.45;;;9.85;;
32918;SDS011;19280;42.646;21.150;2023-06-24T06:39:21;29.13;;;10.60;;
32918;SDS011;19280;42.646;21.150;2023-06-24T06:41:47;30.67;;;10.98;;
32918;SDS011;19280;42.646;21.150;2023-06-24T06:44:13;31.58;;;10.15;;
32918;SDS011;19280;42.646;21.150;2023-06-24T06:46:39;33.85;;;10.85;;
32918;SDS011;19280;42.646;21.150;2023-06-24T06:49:05;28.35;;;10.82;;
32918;SDS011;19280;42.646;21.150;2023-06-24T06:51:31;36.05;;;11.85;;
32918;SDS011;19280;42.646;21.150;2023-06-24T06:53:57;24.35;;;11.20;;
32918;SDS011;19280;42.646;21.150;2023-06-24T06:56:23;33.40;;;11.93;;
32918;SDS011;19280;42.646;21.150;2023-06-24T06:58:50;41.08;;;12.15;;
32918;SDS011;19280;42.646;21.150;2023-06-24T07:01:17;36.03;;;11.77;;
32918;SDS011;19280;42.646;21.150;2023-06-24T07:03:43;33.67;;;12.90;;
32918;SDS011;19280;42.646;21.150;2023-06-24T07:06:09;42.70;;;12.65;;
32918;SDS011;19280;42.646;21.150;2023-06-24T07:08:35;29.42;;;14.30;;
32918;SDS011;19280;42.646;21.150;2023-06-24T07:11:01;41.58;;;13.43;;
32918;SDS011;19280;42.646;21.150;2023-06-24T07:13:28;45.38;;;14.10;;
32918;SDS011;19280;42.646;21.150;2023-06-24T07:15:54;43.80;;;13.02;;
32918;SDS011;19280;42.646;21.150;2023-06-24T07:18:20;24.27;;;11.55;;
32918;SDS011;19280;42.646;21.150;2023-06-24T07:20:46;31.83;;;12.77;;
32918;SDS011;19280;42.646;21.150;2023-06-24T07:23:12;43.88;;;12.32;;
32918;SDS011;19280;42.646;21.150;2023-06-24T07:25:38;30.45;;;11.00;;
32918;SDS011;19280;42.646;21.150;2023-06-24T07:28:04;27.38;;;12.40;;
32918;SDS011;19280;42.646;21.150;2023-06-24T07:30:30;33.60;;;11.93;;
32918;SDS011;19280;42.646;21.150;2023-06-24T07:32:56;26.35;;;10.98;;
32918;SDS011;19280;42.646;21.150;2023-06-24T07:35:22;31.77;;;11.38;;
32918;SDS011;19280;42.646;21.150;2023-06-24T07:37:48;41.60;;;11.75;;
32918;SDS011;19280;42.646;21.150;2023-06-24T07:40:14;34.40;;;12.05;;
32918;SDS011;19280;42.646;21.150;2023-06-24T07:42:41;28.83;;;11.18;;
32918;SDS011;19280;42.646;21.150;2023-06-24T07:45:07;33.78;;;11.77;;
32918;SDS011;19280;42.646;21.150;2023-06-24T07:47:33;30.80;;;11.18;;
32918;SDS011;19280;42.646;21.150;2023-06-24T07:49:59;26.45;;;11.65;;
32918;SDS011;19280;42.646;21.150;2023-06-24T07:52:25;33.67;;;12.45;;
32918;SDS011;19280;42.646;21.150;2023-06-24T07:54:51;25.98;;;12.30;;
32918;SDS011;19280;42.646;21.150;2023-06-24T07:57:18;31.73;;;13.05;;
32918;SDS011;19280;42.646;21.150;2023-06-24T07:59:44;39.50;;;13.63;;
32918;SDS011;19280;42.646;21.150;2023-06-24T08:02:10;27.75;;;12.98;;
32918;SDS011;19280;42.646;21.150;2023-06-24T08:04:36;30.50;;;11.45;;
32918;SDS011;19280;42.646;21.150;2023-06-24T08:07:02;29.90;;;11.90;;
32918;SDS011;19280;42.646;21.150;2023-06-24T08:09:28;26.75;;;11.70;;
32918;SDS011;19280;42.646;21.150;2023-06-24T08:11:54;28.00;;;12.77;;
32918;SDS011;19280;42.646;21.150;2023-06-24T08:14:20;31.83;;;13.07;;
32918;SDS011;19280;42.646;21.150;2023-06-24T08:16:46;26.98;;;14.57;;
32918;SDS011;19280;42.646;21.150;2023-06-24T08:19:13;33.63;;;14.10;;
32918;SDS011;19280;42.646;21.150;2023-06-24T08:21:39;37.75;;;16.10;;
32918;SDS011;19280;42.646;21.150;2023-06-24T08:24:06;28.55;;;14.48;;
32918;SDS011;19280;42.646;21.150;2023-06-24T08:26:32;34.13;;;14.88;;
32918;SDS011;19280;42.646;21.150;2023-06-24T08:28:58;31.48;;;16.35;;
32918;SDS011;19280;42.646;21.150;2023-06-24T08:31:25;38.47;;;16.27;;
32918;SDS011;19280;42.646;21.150;2023-06-24T08:33:52;31.25;;;15.65;;
32918;SDS011;19280;42.646;21.150;2023-06-24T08:36:20;34.58;;;17.33;;
32918;SDS011;19280;42.646;21.150;2023-06-24T08:38:47;21.00;;;14.02;;
32918;SDS011;19280;42.646;21.150;2023-06-24T08:41:13;23.48;;;14.02;;
32918;SDS011;19280;42.646;21.150;2023-06-24T08:43:39;28.92;;;15.02;;
32918;SDS011;19280;42.646;21.150;2023-06-24T08:46:05;29.67;;;15.00;;
32918;SDS011;19280;42.646;21.150;2023-06-24T08:48:32;23.83;;;12.85;;
32918;SDS011;19280;42.646;21.150;2023-06-24T08:51:04;35.60;;;13.63;;
32918;SDS011;19280;42.646;21.150;2023-06-24T08:53:32;31.38;;;12.32;;
32918;SDS011;19280;42.646;21.150;2023-06-24T08:55:59;28.98;;;12.68;;
32918;SDS011;19280;42.646;21.150;2023-06-24T08:58:25;32.88;;;12.65;;
32918;SDS011;19280;42.646;21.150;2023-06-24T09:00:51;31.15;;;13.40;;
32918;SDS011;19280;42.646;21.150;2023-06-24T09:03:17;37.45;;;12.52;;
32918;SDS011;19280;42.646;21.150;2023-06-24T09:05:43;39.88;;;11.65;;
32918;SDS011;19280;42.646;21.150;2023-06-24T09:08:09;37.80;;;11.85;;
32918;SDS011;19280;42.646;21.150;2023-06-24T09:10:36;35.65;;;12.18;;
32918;SDS011;19280;42.646;21.150;2023-06-24T09:13:05;28.15;;;11.90;;
32918;SDS011;19280;42.646;21.150;2023-06-24T09:15:32;29.33;;;12.82;;
32918;SDS011;19280;42.646;21.150;2023-06-24T09:17:58;29.77;;;12.48;;
32918;SDS011;19280;42.646;21.150;2023-06-24T09:20:28;32.42;;;12.00;;
32918;SDS011;19280;42.646;21.150;2023-06-24T09:23:03;30.65;;;12.38;;
32918;SDS011;19280;42.646;21.150;2023-06-24T09:25:30;29.95;;;11.85;;
32918;SDS011;19280;42.646;21.150;2023-06-24T09:27:59;26.48;;;11.73;;
32918;SDS011;19280;42.646;21.150;2023-06-24T09:30:25;26.33;;;11.90;;
32918;SDS011;19280;42.646;21.150;2023-06-24T09:32:52;28.63;;;10.80;;
32918;SDS011;19280;42.646;21.150;2023-06-24T09:35:19;28.70;;;11.85;;
32918;SDS011;19280;42.646;21.150;2023-06-24T09:37:50;28.42;;;11.38;;
32918;SDS011;19280;42.646;21.150;2023-06-24T09:40:16;22.90;;;11.20;;
32918;SDS011;19280;42.646;21.150;2023-06-24T09:42:52;22.23;;;12.05;;
32918;SDS011;19280;42.646;21.150;2023-06-24T09:45:25;27.48;;;12.55;;
32918;SDS011;19280;42.646;21.150;2023-06-24T09:47:51;26.35;;;12.25;;
32918;SDS011;19280;42.646;21.150;2023-06-24T09:50:18;23.52;;;12.32;;
32918;SDS011;19280;42.646;21.150;2023-06-24T09:52:44;32.50;;;12.98;;
32918;SDS011;19280;42.646;21.150;2023-06-24T09:55:14;23.77;;;12.98;;
32918;SDS011;19280;42.646;21.150;2023-06-24T09:57:47;23.35;;;12.43;;
32918;SDS011;19280;42.646;21.150;2023-06-24T10:00:14;23.42;;;12.65;;
32918;SDS011;19280;42.646;21.150;2023-06-24T10:02:40;23.60;;;11.93;;
32918;SDS011;19280;42.646;21.150;2023-06-24T10:05:06;24.58;;;12.35;;
32918;SDS011;19280;42.646;21.150;2023-06-24T10:07:34;29.17;;;12.20;;
32918;SDS011;19280;42.646;21.150;2023-06-24T10:10:01;27.95;;;13.48;;
32918;SDS011;19280;42.646;21.150;2023-06-24T10:12:27;23.75;;;11.07;;
32918;SDS011;19280;42.646;21.150;2023-06-24T10:14:54;22.75;;;11.70;;
32918;SDS011;19280;42.646;21.150;2023-06-24T10:17:20;25.45;;;11.25;;
32918;SDS011;19280;42.646;21.150;2023-06-24T10:19:46;25.08;;;11.85;;
32918;SDS011;19280;42.646;21.150;2023-06-24T10:22:12;22.95;;;11.63;;
32918;SDS011;19280;42.646;21.150;2023-06-24T10:24:39;18.92;;;11.63;;
32918;SDS011;19280;42.646;21.150;2023-06-24T10:27:13;20.35;;;11.43;;
32918;SDS011;19280;42.646;21.150;2023-06-24T10:29:40;28.17;;;11.48;;
32918;SDS011;19280;42.646;21.150;2023-06-24T10:32:10;24.15;;;11.98;;
32918;SDS011;19280;42.646;21.150;2023-06-24T10:37:09;19.25;;;11.18;;
32918;SDS011;19280;42.646;21.150;2023-06-24T10:44:49;23.80;;;11.85;;
32918;SDS011;19280;42.646;21.150;2023-06-24T10:47:16;26.05;;;12.88;;
32918;SDS011;19280;42.646;21.150;2023-06-24T10:49:43;26.67;;;13.05;;
32918;SDS011;19280;42.646;21.150;2023-06-24T10:52:09;24.23;;;11.95;;
32918;SDS011;19280;42.646;21.150;2023-06-24T10:54:36;23.08;;;11.77;;
32918;SDS011;19280;42.646;21.150;2023-06-24T10:57:05;27.58;;;13.18;;
32918;SDS011;19280;42.646;21.150;2023-06-24T10:59:35;25.08;;;13.70;;
32918;SDS011;19280;42.646;21.150;2023-06-24T11:02:01;21.88;;;12.10;;
32918;SDS011;19280;42.646;21.150;2023-06-24T11:04:27;35.53;;;13.07;;
32918;SDS011;19280;42.646;21.150;2023-06-24T11:07:00;19.98;;;12.00;;
32918;SDS011;19280;42.646;21.150;2023-06-24T11:09:27;20.50;;;11.93;;
32918;SDS011;19280;42.646;21.150;2023-06-24T11:11:53;25.95;;;12.57;;
32918;SDS011;19280;42.646;21.150;2023-06-24T11:14:19;22.70;;;12.18;;
32918;SDS011;19280;42.646;21.150;2023-06-24T11:16:46;22.05;;;12.23;;
32918;SDS011;19280;42.646;21.150;2023-06-24T11:19:12;27.20;;;12.55;;
32918;SDS011;19280;42.646;21.150;2023-06-24T11:21:38;25.05;;;12.15;;
32918;SDS011;19280;42.646;21.150;2023-06-24T11:24:04;22.58;;;11.18;;
32918;SDS011;19280;42.646;21.150;2023-06-24T11:26:31;33.85;;;13.95;;
32918;SDS011;19280;42.646;21.150;2023-06-24T11:28:58;21.00;;;12.18;;
32918;SDS011;19280;42.646;21.150;2023-06-24T11:31:27;23.42;;;12.50;;
32918;SDS011;19280;42.646;21.150;2023-06-24T11:33:53;22.95;;;12.15;;
32918;SDS011;19280;42.646;21.150;2023-06-24T11:36:22;21.30;;;12.98;;
32918;SDS011;19280;42.646;21.150;2023-06-24T11:38:48;22.00;;;12.50;;
32918;SDS011;19280;42.646;21.150;2023-06-24T11:41:14;25.30;;;12.73;;
32918;SDS011;19280;42.646;21.150;2023-06-24T11:43:47;19.85;;;12.02;;
32918;SDS011;19280;42.646;21.150;2023-06-24T11:48:51;20.75;;;11.38;;
32918;SDS011;19280;42.646;21.150;2023-06-24T11:51:17;26.40;;;12.30;;
32918;SDS011;19280;42.646;21.150;2023-06-24T11:53:44;36.38;;;13.68;;
32918;SDS011;19280;42.646;21.150;2023-06-24T11:56:11;29.20;;;12.75;;
32918;SDS011;19280;42.646;21.150;2023-06-24T11:58:37;25.02;;;12.55;;
32918;SDS011;19280;42.646;21.150;2023-06-24T12:01:03;27.27;;;12.15;;
32918;SDS011;19280;42.646;21.150;2023-06-24T12:03:29;39.30;;;12.90;;
32918;SDS011;19280;42.646;21.150;2023-06-24T12:05:57;24.50;;;11.48;;
32918;SDS011;19280;42.646;21.150;2023-06-24T12:08:23;37.50;;;12.05;;
32918;SDS011;19280;42.646;21.150;2023-06-24T12:10:49;33.60;;;12.00;;
32918;SDS011;19280;42.646;21.150;2023-06-24T12:13:16;21.17;;;12.15;;
32918;SDS011;19280;42.646;21.150;2023-06-24T12:15:42;31.50;;;12.65;;
32918;SDS011;19280;42.646;21.150;2023-06-24T12:18:08;30.75;;;12.57;;
32918;SDS011;19280;42.646;21.150;2023-06-24T12:20:34;27.85;;;12.38;;
32918;SDS011;19280;42.646;21.150;2023-06-24T12:23:01;25.50;;;13.40;;
32918;SDS011;19280;42.646;21.150;2023-06-24T12:25:28;28.80;;;12.75;;
32918;SDS011;19280;42.646;21.150;2023-06-24T12:27:54;21.83;;;13.25;;
32918;SDS011;19280;42.646;21.150;2023-06-24T12:30:21;27.20;;;12.90;;
32918;SDS011;19280;42.646;21.150;2023-06-24T12:32:49;32.65;;;13.43;;
32918;SDS011;19280;42.646;21.150;2023-06-24T12:35:15;27.95;;;13.30;;
32918;SDS011;19280;42.646;21.150;2023-06-24T12:37:41;32.53;;;13.77;;
32918;SDS011;19280;42.646;21.150;2023-06-24T12:40:10;33.67;;;13.63;;
32918;SDS011;19280;42.646;21.150;2023-06-24T12:42:36;23.13;;;13.30;;
32918;SDS011;19280;42.646;21.150;2023-06-24T12:45:02;27.58;;;14.95;;
32918;SDS011;19280;42.646;21.150;2023-06-24T12:47:28;34.30;;;14.50;;
32918;SDS011;19280;42.646;21.150;2023-06-24T12:49:54;24.67;;;13.98;;
32918;SDS011;19280;42.646;21.150;2023-06-24T12:52:20;34.72;;;13.85;;
32918;SDS011;19280;42.646;21.150;2023-06-24T12:54:46;36.88;;;15.00;;
32918;SDS011;19280;42.646;21.150;2023-06-24T12:57:14;20.30;;;13.52;;
32918;SDS011;19280;42.646;21.150;2023-06-24T12:59:40;32.40;;;15.65;;
32918;SDS011;19280;42.646;21.150;2023-06-24T13:02:06;29.90;;;14.75;;
32918;SDS011;19280;42.646;21.150;2023-06-24T13:04:33;32.83;;;14.15;;
32918;SDS011;19280;42.646;21.150;2023-06-24T13:06:59;33.22;;;13.40;;
32918;SDS011;19280;42.646;21.150;2023-06-24T13:09:26;30.10;;;13.02;;
32918;SDS011;19280;42.646;21.150;2023-06-24T13:11:52;36.15;;;13.70;;
32918;SDS011;19280;42.646;21.150;2023-06-24T13:14:18;26.65;;;13.45;;
32918;SDS011;19280;42.646;21.150;2023-06-24T13:16:44;37.45;;;14.05;;
32918;SDS011;19280;42.646;21.150;2023-06-24T13:19:10;41.03;;;13.82;;
32918;SDS011;19280;42.646;21.150;2023-06-24T13:21:36;32.20;;;14.32;;
32918;SDS011;19280;42.646;21.150;2023-06-24T13:24:02;31.85;;;14.45;;
32918;SDS011;19280;42.646;21.150;2023-06-24T13:26:28;33.55;;;15.32;;
32918;SDS011;19280;42.646;21.150;2023-06-24T13:28:54;32.70;;;16.75;;
32918;SDS011;19280;42.646;21.150;2023-06-24T13:31:20;37.22;;;17.25;;
32918;SDS011;19280;42.646;21.150;2023-06-24T13:33:46;37.17;;;18.85;;
32918;SDS011;19280;42.646;21.150;2023-06-24T13:36:34;33.17;;;17.17;;
32918;SDS011;19280;42.646;21.150;2023-06-24T13:39:00;34.05;;;17.55;;
32918;SDS011;19280;42.646;21.150;2023-06-24T13:41:26;30.08;;;16.55;;
32918;SDS011;19280;42.646;21.150;2023-06-24T13:43:54;29.55;;;15.68;;
32918;SDS011;19280;42.646;21.150;2023-06-24T13:46:21;25.38;;;16.17;;
32918;SDS011;19280;42.646;21.150;2023-06-24T13:48:48;36.30;;;15.82;;
32918;SDS011;19280;42.646;21.150;2023-06-24T13:51:15;32.42;;;15.80;;
32918;SDS011;19280;42.646;21.150;2023-06-24T13:53:41;33.30;;;16.33;;
32918;SDS011;19280;42.646;21.150;2023-06-24T13:56:07;29.65;;;16.33;;
32918;SDS011;19280;42.646;21.150;2023-06-24T13:58:33;28.52;;;16.52;;
32918;SDS011;19280;42.646;21.150;2023-06-24T14:00:59;38.25;;;16.52;;
32918;SDS011;19280;42.646;21.150;2023-06-24T14:03:25;31.30;;;15.98;;
32918;SDS011;19280;42.646;21.150;2023-06-24T14:05:51;30.70;;;16.38;;
32918;SDS011;19280;42.646;21.150;2023-06-24T14:08:18;41.80;;;17.50;;
32918;SDS011;19280;42.646;21.150;2023-06-24T14:10:44;32.17;;;17.48;;
32918;SDS011;19280;42.646;21.150;2023-06-24T14:13:10;28.60;;;16.42;;
32918;SDS011;19280;42.646;21.150;2023-06-24T14:15:36;27.20;;;16.40;;
32918;SDS011;19280;42.646;21.150;2023-06-24T14:18:02;28.90;;;17.42;;
32918;SDS011;19280;42.646;21.150;2023-06-24T14:20:28;29.38;;;16.67;;
32918;SDS011;19280;42.646;21.150;2023-06-24T14:22:54;32.75;;;17.92;;
32918;SDS011;19280;42.646;21.150;2023-06-24T14:25:20;31.77;;;17.23;;
32918;SDS011;19280;42.646;21.150;2023-06-24T14:27:46;33.03;;;17.85;;
32918;SDS011;19280;42.646;21.150;2023-06-24T14:30:14;36.70;;;16.40;;